Sunrise, Florida
Current Conditions -  °F | °C
As of 1:53 AM on Sunday 26 Oct 2014 (Local Time) from KFXE Reporting Station
Broken Clouds Broken Clouds  
Wind Chill: 71°   Ceiling: 5000
Heat Index: 71°   Visibility: 10mi
Dew Point: 64°   Wind: 3mph
Humidity: 78%   Direction: 310°NW
Pressure: 29.93"   Gusts: NA
Location:  26.15°N, 80.33°W
Report Text: KFXE 260553Z 31003KT 10SM FEW043 BKN050 22/18 A2993 RMK AO2 SLP137 T02170178 10239 20211 55005
Loading
Personal Weather Stations






























Interactive Weather Map
Tropical Storm Tracking
New forecast layout! Learn more

10-Day Weather Forecast

Advertisements
Track Severe Weather on mobile